createdAt,value
2018-06-02T00:00:03.685Z,43.20
2018-06-02T00:01:03.647Z,42.00
2018-06-02T00:02:03.605Z,42.20
2018-06-02T00:03:03.562Z,42.20
2018-06-02T00:04:03.523Z,44.00
2018-06-02T00:05:03.482Z,43.10
2018-06-02T00:06:03.441Z,43.40
2018-06-02T00:07:03.401Z,43.60
2018-06-02T00:08:03.363Z,43.10
2018-06-02T00:09:03.326Z,44.90
2018-06-02T00:10:03.282Z,44.80
2018-06-02T00:11:03.250Z,43.80
2018-06-02T00:12:03.202Z,44.40
2018-06-02T00:13:03.161Z,44.50
2018-06-02T00:14:03.121Z,43.40
2018-06-02T00:15:03.075Z,45.30
2018-06-02T00:16:03.036Z,43.90
2018-06-02T00:17:02.995Z,43.30
2018-06-02T00:18:02.955Z,44.00
2018-06-02T00:19:02.912Z,43.70
2018-06-02T00:20:02.872Z,44.00
2018-06-02T00:21:02.831Z,43.10
2018-06-02T00:22:02.792Z,43.80
2018-06-02T00:23:02.751Z,44.70
2018-06-02T00:24:02.709Z,43.70
2018-06-02T00:25:02.674Z,44.10
2018-06-02T00:26:02.630Z,44.40
2018-06-02T00:27:02.586Z,42.50
2018-06-02T00:28:02.547Z,42.90
2018-06-02T00:29:02.507Z,43.20
2018-06-02T00:30:02.465Z,43.50
2018-06-02T00:31:02.423Z,43.30
2018-06-02T00:32:02.385Z,42.60
2018-06-02T00:33:02.344Z,42.80
2018-06-02T00:34:02.304Z,41.50
2018-06-02T00:35:02.266Z,40.90
2018-06-02T00:36:02.222Z,40.70
2018-06-02T00:37:02.185Z,41.20
2018-06-02T00:38:02.143Z,41.70
2018-06-02T00:39:02.113Z,41.00
2018-06-02T00:40:02.066Z,40.10
2018-06-02T00:41:02.021Z,40.50
2018-06-02T00:42:01.979Z,42.70
2018-06-02T00:43:01.938Z,42.40
2018-06-02T00:44:01.901Z,40.90
2018-06-02T00:45:01.854Z,40.60
2018-06-02T00:46:01.816Z,40.40
2018-06-02T00:47:01.773Z,40.10
2018-06-02T00:48:01.736Z,40.60
2018-06-02T00:49:01.693Z,41.00
2018-06-02T00:50:01.654Z,41.60
2018-06-02T00:51:01.610Z,40.90
2018-06-02T00:52:01.569Z,41.90
2018-06-02T00:53:01.531Z,42.30
2018-06-02T00:54:01.488Z,41.30
2018-06-02T00:55:01.453Z,43.10
2018-06-02T00:56:01.407Z,42.80
2018-06-02T00:57:01.366Z,42.10
2018-06-02T00:58:01.327Z,40.30
2018-06-02T00:59:01.289Z,43.60
2018-06-02T01:00:01.259Z,40.90
2018-06-02T01:01:01.204Z,42.00
2018-06-02T01:02:01.166Z,41.80
2018-06-02T01:03:01.127Z,42.40
2018-06-02T01:04:01.083Z,43.80
2018-06-02T01:05:01.048Z,43.70
2018-06-02T01:06:01.004Z,44.40
2018-06-02T01:07:00.973Z,42.40
2018-06-02T01:08:00.923Z,42.50
2018-06-02T01:09:00.951Z,42.10
2018-06-02T01:10:00.838Z,44.40
2018-06-02T01:11:00.796Z,43.60
2018-06-02T01:12:00.757Z,43.80
2018-06-02T01:13:00.718Z,44.60
2018-06-02T01:14:00.674Z,43.30
2018-06-02T01:15:00.635Z,41.90
2018-06-02T01:16:00.591Z,40.80
2018-06-02T01:17:00.549Z,42.00
2018-06-02T01:18:00.515Z,41.70
2018-06-02T01:19:00.470Z,38.50
2018-06-02T01:20:00.432Z,40.70
2018-06-02T01:21:00.387Z,41.20
2018-06-02T01:22:00.348Z,39.90
2018-06-02T01:23:00.310Z,40.00
2018-06-02T01:24:00.265Z,42.40
2018-06-02T01:25:00.227Z,42.40
2018-06-02T01:26:00.187Z,44.40
2018-06-02T01:27:00.144Z,42.40
2018-06-02T01:28:00.104Z,46.00
2018-06-02T01:29:00.063Z,45.00
2018-06-02T01:30:00.026Z,44.30
2018-06-02T01:30:59.979Z,45.50
2018-06-02T01:31:59.938Z,45.10
2018-06-02T01:32:59.898Z,46.00
2018-06-02T01:33:59.860Z,46.40
2018-06-02T01:34:59.816Z,43.50
2018-06-02T01:35:59.776Z,42.80
2018-06-02T01:36:59.739Z,41.80
2018-06-02T01:37:59.696Z,41.00
2018-06-02T01:38:59.666Z,41.10
2018-06-02T01:39:59.618Z,39.60
2018-06-02T01:40:59.574Z,40.10
2018-06-02T01:41:59.534Z,41.20
2018-06-02T01:42:59.489Z,38.80
2018-06-02T01:43:59.450Z,38.30
2018-06-02T01:44:59.409Z,37.70
2018-06-02T01:45:59.367Z,37.20
2018-06-02T01:46:59.326Z,37.40
2018-06-02T01:47:59.295Z,36.10
2018-06-02T01:48:59.247Z,37.50
2018-06-02T01:49:59.204Z,37.50
2018-06-02T01:50:59.169Z,36.50
2018-06-02T01:51:59.124Z,37.30
2018-06-02T01:52:59.082Z,38.60
2018-06-02T01:53:59.048Z,40.10
2018-06-02T01:54:58.999Z,39.60
2018-06-02T01:55:58.965Z,40.30
2018-06-02T01:56:58.922Z,37.70
2018-06-02T01:57:58.878Z,38.40
2018-06-02T01:58:58.837Z,38.40
2018-06-02T01:59:58.795Z,38.40
2018-06-02T02:00:58.760Z,39.90
2018-06-02T02:01:58.725Z,39.20
2018-06-02T02:02:58.674Z,38.60
2018-06-02T02:03:58.636Z,39.50
2018-06-02T02:04:58.594Z,38.10
2018-06-02T02:05:58.551Z,37.50
2018-06-02T02:06:58.517Z,39.20
2018-06-02T02:07:58.468Z,37.60
2018-06-02T02:08:58.429Z,38.80
2018-06-02T02:09:58.388Z,38.60
2018-06-02T02:10:58.348Z,38.70
2018-06-02T02:11:58.306Z,38.40
2018-06-02T02:12:58.265Z,38.50
2018-06-02T02:13:58.225Z,38.00
2018-06-02T02:14:58.184Z,39.10
2018-06-02T02:15:58.146Z,38.40
2018-06-02T02:16:58.106Z,37.70
2018-06-02T02:17:58.060Z,39.80
2018-06-02T02:18:58.023Z,37.80
2018-06-02T02:19:57.981Z,37.40
2018-06-02T02:20:57.942Z,35.90
2018-06-02T02:21:57.901Z,36.50
2018-06-02T02:22:57.858Z,33.60
2018-06-02T02:23:57.816Z,34.40
2018-06-02T02:24:57.777Z,33.70
2018-06-02T02:25:57.737Z,34.60
2018-06-02T02:26:57.699Z,32.90
2018-06-02T02:27:57.660Z,32.40
2018-06-02T02:28:57.612Z,32.50
2018-06-02T02:29:57.571Z,32.00
2018-06-02T02:30:57.534Z,32.70
2018-06-02T02:31:57.490Z,31.70
2018-06-02T02:32:57.449Z,31.40
2018-06-02T02:33:57.408Z,31.50
2018-06-02T02:34:57.372Z,31.40
2018-06-02T02:35:57.328Z,31.30
2018-06-02T02:36:57.285Z,30.70
2018-06-02T02:37:57.245Z,32.20
2018-06-02T02:38:57.213Z,31.10
2018-06-02T02:39:57.177Z,31.30
2018-06-02T02:40:57.122Z,30.80
2018-06-02T02:41:57.089Z,30.60
2018-06-02T02:42:57.042Z,30.80
2018-06-02T02:43:57.010Z,32.30
2018-06-02T02:44:56.965Z,31.50
2018-06-02T02:45:56.917Z,31.80
2018-06-02T02:46:56.883Z,31.70
2018-06-02T02:47:56.835Z,32.00
2018-06-02T02:48:56.800Z,33.40
2018-06-02T02:49:56.755Z,33.70
2018-06-02T02:50:56.717Z,35.60
2018-06-02T02:51:56.682Z,34.10
2018-06-02T02:52:56.632Z,34.50
2018-06-02T02:53:56.604Z,33.60
2018-06-02T02:54:56.551Z,36.40
2018-06-02T02:55:56.520Z,35.20
2018-06-02T02:56:56.469Z,35.30
2018-06-02T02:57:56.429Z,35.20
2018-06-02T02:58:56.388Z,36.10
2018-06-02T02:59:56.347Z,34.40
2018-06-02T03:00:56.314Z,36.80
2018-06-02T03:01:56.265Z,34.80
2018-06-02T03:02:56.225Z,35.70
2018-06-02T03:03:56.188Z,35.40
2018-06-02T03:04:56.146Z,35.60
2018-06-02T03:05:56.104Z,34.60
2018-06-02T03:06:56.062Z,36.20
2018-06-02T03:07:56.020Z,35.10
2018-06-02T03:08:55.983Z,35.80
2018-06-02T03:09:55.940Z,37.10
2018-06-02T03:10:55.902Z,35.70
2018-06-02T03:11:55.858Z,35.80
2018-06-02T03:12:55.829Z,37.50
2018-06-02T03:13:55.780Z,36.90
2018-06-02T03:14:55.746Z,36.30
2018-06-02T03:15:55.695Z,37.20
2018-06-02T03:16:55.665Z,36.00
2018-06-02T03:17:55.614Z,37.60
2018-06-02T03:18:55.574Z,38.20
2018-06-02T03:19:55.549Z,37.60
2018-06-02T03:20:55.492Z,38.70
2018-06-02T03:21:55.476Z,37.00
2018-06-02T03:22:55.415Z,39.80
2018-06-02T03:23:55.372Z,38.50
2018-06-02T03:24:55.329Z,37.20
2018-06-02T03:25:55.294Z,37.30
2018-06-02T03:26:55.248Z,40.40
2018-06-02T03:27:55.206Z,38.60
2018-06-02T03:28:55.165Z,38.20
2018-06-02T03:29:55.126Z,38.60
2018-06-02T03:30:55.085Z,38.90
2018-06-02T03:31:55.043Z,38.60
2018-06-02T03:32:55.002Z,39.20
2018-06-02T03:33:54.969Z,38.40
2018-06-02T03:34:54.920Z,38.50
2018-06-02T03:35:54.879Z,39.80
2018-06-02T03:36:54.840Z,38.80
2018-06-02T03:37:54.798Z,38.70
2018-06-02T03:38:54.761Z,39.70
2018-06-02T03:39:54.726Z,39.70
2018-06-02T03:40:54.685Z,40.70
2018-06-02T03:41:54.635Z,40.30
2018-06-02T03:42:54.594Z,40.20
2018-06-02T03:43:54.556Z,40.90
2018-06-02T03:44:54.517Z,42.00
2018-06-02T03:45:54.477Z,40.50
2018-06-02T03:46:54.431Z,42.80
2018-06-02T03:47:54.392Z,41.20
2018-06-02T03:48:54.354Z,41.30
2018-06-02T03:49:54.309Z,41.80
2018-06-02T03:50:54.270Z,42.50
2018-06-02T03:51:54.228Z,42.10
2018-06-02T03:52:54.194Z,41.70
2018-06-02T03:53:54.151Z,40.40
2018-06-02T03:54:54.106Z,42.80
2018-06-02T03:55:54.064Z,42.10
2018-06-02T03:56:54.048Z,42.30
2018-06-02T03:57:53.988Z,42.40
2018-06-02T03:58:53.942Z,42.50
2018-06-02T03:59:53.909Z,43.30
2018-06-02T04:00:53.861Z,42.90
2018-06-02T04:01:53.820Z,43.80
2018-06-02T04:02:53.780Z,41.90
2018-06-02T04:03:53.740Z,44.50
2018-06-02T04:04:53.700Z,43.00
2018-06-02T04:05:53.660Z,45.20
2018-06-02T04:06:53.619Z,44.60
2018-06-02T04:07:53.575Z,44.20
2018-06-02T04:08:53.539Z,42.90
2018-06-02T04:09:53.498Z,45.80
2018-06-02T04:10:53.456Z,43.80
2018-06-02T04:11:53.417Z,43.40
2018-06-02T04:12:53.373Z,45.30
2018-06-02T04:13:53.334Z,44.30
2018-06-02T04:14:53.292Z,45.10
2018-06-02T04:15:53.315Z,43.80
2018-06-02T04:16:53.213Z,44.40
2018-06-02T04:17:53.172Z,44.90
2018-06-02T04:18:53.139Z,43.70
2018-06-02T04:19:53.094Z,43.80
2018-06-02T04:20:53.050Z,45.20
2018-06-02T04:21:53.012Z,44.10
2018-06-02T04:22:52.975Z,45.00
2018-06-02T04:23:52.930Z,45.70
2018-06-02T04:24:52.886Z,44.80
2018-06-02T04:25:52.845Z,44.40
2018-06-02T04:26:52.803Z,44.70
2018-06-02T04:27:52.763Z,43.30
2018-06-02T04:28:52.724Z,44.10
2018-06-02T04:29:52.683Z,47.00
2018-06-02T04:30:52.640Z,44.20
2018-06-02T04:31:52.601Z,43.70
2018-06-02T04:32:52.559Z,43.50
2018-06-02T04:33:52.519Z,43.90
2018-06-02T04:34:52.481Z,43.90
2018-06-02T04:35:52.437Z,43.00
2018-06-02T04:36:52.398Z,42.80
2018-06-02T04:37:52.356Z,43.80
2018-06-02T04:38:52.315Z,44.30
2018-06-02T04:39:52.278Z,43.70
2018-06-02T04:40:52.234Z,44.50
2018-06-02T04:41:52.200Z,45.20
2018-06-02T04:42:52.152Z,43.70
2018-06-02T04:43:52.113Z,43.30
2018-06-02T04:44:52.072Z,44.10
2018-06-02T04:45:52.030Z,45.10
2018-06-02T04:46:51.994Z,42.80
2018-06-02T04:47:51.956Z,42.60
2018-06-02T04:48:51.913Z,43.80
2018-06-02T04:49:51.869Z,45.90
2018-06-02T04:50:51.826Z,45.20
2018-06-02T04:51:51.788Z,44.80
2018-06-02T04:52:51.748Z,45.00
2018-06-02T04:53:51.706Z,45.40
2018-06-02T04:54:51.668Z,44.80
2018-06-02T04:55:51.626Z,45.20
2018-06-02T04:56:51.637Z,45.80
2018-06-02T04:57:51.543Z,46.00
2018-06-02T04:58:51.507Z,45.50
2018-06-02T04:59:51.463Z,45.00
2018-06-02T05:00:51.424Z,45.20
2018-06-02T05:01:51.383Z,46.60
2018-06-02T05:02:51.340Z,46.10
2018-06-02T05:03:51.303Z,45.50
2018-06-02T05:04:51.262Z,46.40
2018-06-02T05:05:51.220Z,46.20
2018-06-02T05:06:51.180Z,46.20
2018-06-02T05:07:51.139Z,45.10
2018-06-02T05:08:51.110Z,46.00
2018-06-02T05:09:51.062Z,45.90
2018-06-02T05:10:51.017Z,45.60
2018-06-02T05:11:50.976Z,45.80
2018-06-02T05:12:50.937Z,45.20
2018-06-02T05:13:50.898Z,44.30
2018-06-02T05:14:50.858Z,44.50
2018-06-02T05:15:50.817Z,44.80
2018-06-02T05:16:50.782Z,44.50
2018-06-02T05:17:50.738Z,45.40
2018-06-02T05:18:50.694Z,43.50
2018-06-02T05:19:50.653Z,44.10
2018-06-02T05:20:50.613Z,44.50
2018-06-02T05:21:50.573Z,42.50
2018-06-02T05:22:50.533Z,43.20
2018-06-02T05:23:50.493Z,42.90
2018-06-02T05:24:50.457Z,43.80
2018-06-02T05:25:50.414Z,43.80
2018-06-02T05:26:50.377Z,45.10
2018-06-02T05:27:50.332Z,44.10
2018-06-02T05:28:50.292Z,44.00
2018-06-02T05:29:50.250Z,42.90
2018-06-02T05:30:50.212Z,43.70
2018-06-02T05:31:50.170Z,44.10
2018-06-02T05:32:50.129Z,45.90
2018-06-02T05:33:50.089Z,45.10
2018-06-02T05:34:50.051Z,44.30
2018-06-02T05:35:50.012Z,45.20
2018-06-02T05:36:49.983Z,44.50
2018-06-02T05:37:49.933Z,45.20
2018-06-02T05:38:49.894Z,45.90
2018-06-02T05:39:49.848Z,45.60
2018-06-02T05:40:49.806Z,46.90
2018-06-02T05:41:49.776Z,48.20
2018-06-02T05:42:49.727Z,46.40
2018-06-02T05:43:49.688Z,47.60
2018-06-02T05:44:49.652Z,48.70
2018-06-02T05:45:49.607Z,47.20
2018-06-02T05:46:49.569Z,48.30
2018-06-02T05:47:49.533Z,49.30
2018-06-02T05:48:49.487Z,48.30
2018-06-02T05:49:49.445Z,49.60
2018-06-02T05:50:49.409Z,49.00
2018-06-02T05:51:49.365Z,49.30
2018-06-02T05:52:49.348Z,50.00
2018-06-02T05:53:49.286Z,49.70
2018-06-02T05:54:49.249Z,49.70
2018-06-02T05:55:49.204Z,51.20
2018-06-02T05:56:49.166Z,50.50
2018-06-02T05:57:49.124Z,52.00
2018-06-02T05:58:49.087Z,51.80
2018-06-02T05:59:49.061Z,52.90
2018-06-02T06:00:49.007Z,53.00
2018-06-02T06:01:48.964Z,53.60
2018-06-02T06:02:48.924Z,52.20
2018-06-02T06:03:48.883Z,53.20
2018-06-02T06:04:48.848Z,53.60
2018-06-02T06:05:48.807Z,53.70
2018-06-02T06:06:48.766Z,53.90
2018-06-02T06:07:48.726Z,53.90
2018-06-02T06:08:48.683Z,54.50
2018-06-02T06:09:48.645Z,53.50
2018-06-02T06:10:48.599Z,53.70
2018-06-02T06:11:48.563Z,54.20
2018-06-02T06:12:48.519Z,54.30
2018-06-02T06:13:48.483Z,54.90
2018-06-02T06:14:48.438Z,54.30
2018-06-02T06:15:48.401Z,54.60
2018-06-02T06:16:48.360Z,54.00
2018-06-02T06:17:48.320Z,53.60
2018-06-02T06:18:48.281Z,53.60
2018-06-02T06:19:48.249Z,53.80
2018-06-02T06:20:48.202Z,52.30
2018-06-02T06:21:48.158Z,51.70
2018-06-02T06:22:48.119Z,51.30
2018-06-02T06:23:48.077Z,51.70
2018-06-02T06:24:48.038Z,51.30
2018-06-02T06:25:47.998Z,52.20
2018-06-02T06:26:47.966Z,52.30
2018-06-02T06:27:47.920Z,51.00
2018-06-02T06:28:47.877Z,51.70
2018-06-02T06:29:47.835Z,51.90
2018-06-02T06:30:47.803Z,50.60
2018-06-02T06:31:47.761Z,50.80
2018-06-02T06:32:47.717Z,50.90
2018-06-02T06:33:47.681Z,50.40
2018-06-02T06:34:47.635Z,51.20
2018-06-02T06:35:47.604Z,51.30
2018-06-02T06:36:47.555Z,51.60
2018-06-02T06:37:47.518Z,49.50
2018-06-02T06:38:47.490Z,51.80
2018-06-02T06:39:47.436Z,51.80
2018-06-02T06:40:47.398Z,51.20
2018-06-02T06:41:47.357Z,51.80
2018-06-02T06:42:47.317Z,52.00
2018-06-02T06:43:47.276Z,50.50
2018-06-02T06:44:47.279Z,49.20
2018-06-02T06:45:47.198Z,50.40
2018-06-02T06:46:47.159Z,51.60
2018-06-02T06:47:47.118Z,50.90
2018-06-02T06:48:47.075Z,52.20
2018-06-02T06:49:47.034Z,52.50
2018-06-02T06:50:46.998Z,53.00
2018-06-02T06:51:46.960Z,51.70
2018-06-02T06:52:46.916Z,51.90
2018-06-02T06:53:46.879Z,52.90
2018-06-02T06:54:46.868Z,51.70
2018-06-02T06:55:46.796Z,54.40
2018-06-02T06:56:46.758Z,52.20
2018-06-02T06:57:46.722Z,52.50
2018-06-02T06:58:46.676Z,52.30
2018-06-02T06:59:46.638Z,54.00
2018-06-02T07:00:46.598Z,52.60
2018-06-02T07:01:46.558Z,53.30
2018-06-02T07:02:46.515Z,51.90
2018-06-02T07:03:46.478Z,55.30
2018-06-02T07:04:46.438Z,54.60
2018-06-02T07:05:46.398Z,54.40
2018-06-02T07:06:46.357Z,54.40
2018-06-02T07:07:46.318Z,54.60
2018-06-02T07:08:46.277Z,55.20
2018-06-02T07:09:46.234Z,54.00
2018-06-02T07:10:46.198Z,54.50
2018-06-02T07:11:46.190Z,53.80
2018-06-02T07:12:46.119Z,53.40
2018-06-02T07:13:46.075Z,54.50
2018-06-02T07:14:46.037Z,53.50
2018-06-02T07:15:46.025Z,54.00
2018-06-02T07:16:45.970Z,53.40
2018-06-02T07:17:46.040Z,52.70
2018-06-02T07:18:45.883Z,53.60
2018-06-02T07:19:45.834Z,52.80
2018-06-02T07:20:45.796Z,50.40
2018-06-02T07:21:45.764Z,52.70
2018-06-02T07:22:45.716Z,52.70
2018-06-02T07:23:45.676Z,52.30
2018-06-02T07:24:45.671Z,51.90
2018-06-02T07:25:45.595Z,51.50
2018-06-02T07:26:45.555Z,51.90
2018-06-02T07:27:45.515Z,51.10
2018-06-02T07:28:45.477Z,50.30
2018-06-02T07:29:45.436Z,50.40
2018-06-02T07:30:45.396Z,50.80
2018-06-02T07:31:45.356Z,49.90
2018-06-02T07:32:45.318Z,49.90
2018-06-02T07:33:45.277Z,48.70
2018-06-02T07:34:45.236Z,48.80
2018-06-02T07:35:45.199Z,48.20
2018-06-02T07:36:45.158Z,50.10
2018-06-02T07:37:45.119Z,48.30
2018-06-02T07:38:45.079Z,49.30
2018-06-02T07:39:45.041Z,50.00
2018-06-02T07:40:44.998Z,50.20
2018-06-02T07:41:44.962Z,50.00
2018-06-02T07:42:44.921Z,49.30
2018-06-02T07:43:44.880Z,49.20
2018-06-02T07:44:44.838Z,49.30
2018-06-02T07:45:44.799Z,49.20
2018-06-02T07:46:44.760Z,46.00
2018-06-02T07:47:44.720Z,41.80
2018-06-02T07:48:44.683Z,39.70
2018-06-02T07:49:44.644Z,37.40
2018-06-02T07:50:44.601Z,35.10
2018-06-02T07:51:44.565Z,33.00
2018-06-02T07:52:44.522Z,32.80
2018-06-02T07:53:44.483Z,31.50
2018-06-02T07:54:44.442Z,27.60
2018-06-02T07:55:44.401Z,27.80
2018-06-02T07:56:44.362Z,27.20
2018-06-02T07:57:44.323Z,26.90
2018-06-02T07:58:44.282Z,25.50
2018-06-02T07:59:44.244Z,26.70
2018-06-02T08:00:44.203Z,27.20
2018-06-02T08:01:44.164Z,25.80
2018-06-02T08:02:44.123Z,27.10
2018-06-02T08:03:44.083Z,27.40
2018-06-02T08:04:44.048Z,29.30
2018-06-02T08:05:44.008Z,28.10
2018-06-02T08:06:43.968Z,29.70
2018-06-02T08:07:43.924Z,27.70
2018-06-02T08:08:43.944Z,28.30
2018-06-02T08:09:43.847Z,27.30
2018-06-02T08:10:43.812Z,28.20
2018-06-02T08:11:43.767Z,25.90
2018-06-02T08:12:43.729Z,26.10
2018-06-02T08:13:43.687Z,25.30
2018-06-02T08:14:43.647Z,24.20
2018-06-02T08:15:43.607Z,23.50
2018-06-02T08:16:43.571Z,24.80
2018-06-02T08:17:43.547Z,23.50
2018-06-02T08:18:43.496Z,24.20
2018-06-02T08:19:43.492Z,24.00
2018-06-02T08:20:43.410Z,23.30
2018-06-02T08:21:43.374Z,23.30
2018-06-02T08:22:43.333Z,22.60
2018-06-02T08:23:43.290Z,21.30
2018-06-02T08:24:43.252Z,22.20
2018-06-02T08:25:43.212Z,21.60
2018-06-02T08:26:43.251Z,22.30
2018-06-02T08:27:43.132Z,23.10
2018-06-02T08:28:43.098Z,23.10
2018-06-02T08:29:43.053Z,23.30
2018-06-02T08:30:43.011Z,22.70
2018-06-02T08:31:42.973Z,22.50
2018-06-02T08:32:42.938Z,23.70
2018-06-02T08:33:42.893Z,23.10
2018-06-02T08:34:42.853Z,25.70
2018-06-02T08:35:42.814Z,25.90
2018-06-02T08:36:42.777Z,25.20
2018-06-02T08:37:42.736Z,24.40
2018-06-02T08:38:42.694Z,23.80
2018-06-02T08:39:42.654Z,23.40
2018-06-02T08:40:42.616Z,23.10
2018-06-02T08:41:42.575Z,22.20
2018-06-02T08:42:42.537Z,22.50
2018-06-02T08:43:42.495Z,23.00
2018-06-02T08:44:42.456Z,23.10
2018-06-02T08:45:42.418Z,22.70
2018-06-02T08:46:42.378Z,22.80
2018-06-02T08:47:42.335Z,23.80
2018-06-02T08:48:42.298Z,21.90
2018-06-02T08:49:42.258Z,22.30
2018-06-02T08:50:42.227Z,21.30
2018-06-02T08:51:42.181Z,22.90
2018-06-02T08:52:42.140Z,20.90
2018-06-02T08:53:42.102Z,21.60
2018-06-02T08:54:42.066Z,21.80
2018-06-02T08:55:42.020Z,23.20
2018-06-02T08:56:41.981Z,22.80
2018-06-02T08:57:41.941Z,21.60
2018-06-02T08:58:41.902Z,21.70
2018-06-02T08:59:41.858Z,20.90
2018-06-02T09:00:41.819Z,19.70
2018-06-02T09:01:41.780Z,19.80
2018-06-02T09:02:41.738Z,18.80
2018-06-02T09:03:41.698Z,18.70
2018-06-02T09:04:41.659Z,18.30
2018-06-02T09:05:41.630Z,17.80
2018-06-02T09:06:41.578Z,16.80
2018-06-02T09:07:41.543Z,15.90
2018-06-02T09:08:41.506Z,15.00
2018-06-02T09:09:41.465Z,14.80
2018-06-02T09:10:41.421Z,15.20
2018-06-02T09:11:41.385Z,13.70
2018-06-02T09:12:41.340Z,13.90
2018-06-02T09:13:41.304Z,14.10
2018-06-02T09:14:41.259Z,14.20
2018-06-02T09:15:41.223Z,15.00
2018-06-02T09:16:41.182Z,15.80
2018-06-02T09:17:41.143Z,15.60
2018-06-02T09:18:41.105Z,14.80
2018-06-02T09:19:41.065Z,14.70
2018-06-02T09:20:41.026Z,15.40
2018-06-02T09:21:41.028Z,15.00
2018-06-02T09:22:40.945Z,14.70
2018-06-02T09:23:40.909Z,14.90
2018-06-02T09:24:40.869Z,16.10
2018-06-02T09:25:40.830Z,16.80
2018-06-02T09:26:40.789Z,16.10
2018-06-02T09:27:40.750Z,15.60
2018-06-02T09:28:40.711Z,13.30
2018-06-02T09:29:40.673Z,15.20
2018-06-02T09:30:40.633Z,15.10
2018-06-02T09:31:40.594Z,15.70
2018-06-02T09:32:40.561Z,15.10
2018-06-02T09:33:40.519Z,14.20
2018-06-02T09:34:40.478Z,13.90
2018-06-02T09:35:40.445Z,13.80
2018-06-02T09:36:40.400Z,14.20
2018-06-02T09:37:40.362Z,15.10
2018-06-02T09:38:40.322Z,14.90
2018-06-02T09:39:40.284Z,16.60
2018-06-02T09:40:40.244Z,17.60
2018-06-02T09:41:40.206Z,18.90
2018-06-02T09:42:40.175Z,21.20
2018-06-02T09:43:40.129Z,20.50
2018-06-02T09:44:40.091Z,19.90
2018-06-02T09:45:40.054Z,18.20
2018-06-02T09:46:40.016Z,18.00
2018-06-02T09:47:40.027Z,18.30
2018-06-02T09:48:39.936Z,19.20
2018-06-02T09:49:39.902Z,21.60
2018-06-02T09:50:39.862Z,21.60
2018-06-02T09:51:39.825Z,21.30
2018-06-02T09:52:39.786Z,21.00
2018-06-02T09:53:39.749Z,21.80
2018-06-02T09:54:39.706Z,21.00
2018-06-02T09:55:39.668Z,20.30
2018-06-02T09:56:39.632Z,22.30
2018-06-02T09:57:39.632Z,23.40
2018-06-02T09:58:39.553Z,25.60
2018-06-02T09:59:39.519Z,26.20
2018-06-02T10:00:39.479Z,25.70
2018-06-02T10:01:39.438Z,20.60
2018-06-02T10:02:39.399Z,19.00
2018-06-02T10:03:39.361Z,17.50
2018-06-02T10:04:39.377Z,16.70
2018-06-02T10:05:39.285Z,15.70
2018-06-02T10:06:39.246Z,16.30
2018-06-02T10:07:39.210Z,15.50
2018-06-02T10:08:39.171Z,16.70
2018-06-02T10:09:39.139Z,16.20
2018-06-02T10:10:39.177Z,16.30
2018-06-02T10:11:39.057Z,16.40
2018-06-02T10:12:39.019Z,17.10
2018-06-02T10:13:38.980Z,17.10
2018-06-02T10:14:38.941Z,16.60
2018-06-02T10:15:38.904Z,16.60
2018-06-02T10:16:38.869Z,16.70
2018-06-02T10:17:38.827Z,16.80
2018-06-02T10:18:38.789Z,16.60
2018-06-02T10:19:38.756Z,16.20
2018-06-02T10:20:38.714Z,17.00
2018-06-02T10:21:38.684Z,16.40
2018-06-02T10:22:38.638Z,15.90
2018-06-02T10:23:38.599Z,14.80
2018-06-02T10:24:38.562Z,14.50
2018-06-02T10:25:38.525Z,13.10
2018-06-02T10:26:38.486Z,12.70
2018-06-02T10:27:38.450Z,12.00
2018-06-02T10:28:38.411Z,11.00
2018-06-02T10:29:38.414Z,10.60
2018-06-02T10:30:38.335Z,9.60
2018-06-02T10:31:38.299Z,9.80
2018-06-02T10:32:38.255Z,11.40
2018-06-02T10:33:38.217Z,11.30
2018-06-02T10:34:38.178Z,11.60
2018-06-02T10:35:38.199Z,11.50
2018-06-02T10:36:38.128Z,10.50
2018-06-02T10:37:38.068Z,11.20
2018-06-02T10:38:38.028Z,10.40
2018-06-02T10:39:37.989Z,9.80
2018-06-02T10:40:37.954Z,10.20
2018-06-02T10:41:37.933Z,10.40
2018-06-02T10:42:37.876Z,10.50
2018-06-02T10:43:37.835Z,10.40
2018-06-02T10:44:37.853Z,10.40
2018-06-02T10:45:37.760Z,11.20
2018-06-02T10:46:37.723Z,11.10
2018-06-02T10:47:37.683Z,10.90
2018-06-02T10:48:37.647Z,11.20
2018-06-02T10:49:37.610Z,11.20
2018-06-02T10:50:37.573Z,10.50
2018-06-02T10:51:37.531Z,9.50
2018-06-02T10:52:37.502Z,8.80
2018-06-02T10:53:37.458Z,9.50
2018-06-02T10:54:37.422Z,8.50
2018-06-02T10:55:37.383Z,8.00
2018-06-02T10:56:37.344Z,8.00
2018-06-02T10:57:37.308Z,7.70
2018-06-02T10:58:37.263Z,7.50
2018-06-02T10:59:37.225Z,7.30
2018-06-02T11:00:37.188Z,7.60
2018-06-02T11:01:37.159Z,7.50
2018-06-02T11:02:37.111Z,7.10
2018-06-02T11:03:37.076Z,7.00
2018-06-02T11:04:37.038Z,7.40
2018-06-02T11:05:37.000Z,7.70
2018-06-02T11:06:36.973Z,7.70
2018-06-02T11:07:36.922Z,8.10
2018-06-02T11:08:36.884Z,7.90
2018-06-02T11:09:36.850Z,8.10
2018-06-02T11:10:36.872Z,7.40
2018-06-02T11:11:36.783Z,7.70
2018-06-02T11:12:36.733Z,7.90
2018-06-02T11:13:36.694Z,7.30
2018-06-02T11:14:36.654Z,7.40
2018-06-02T11:15:36.624Z,7.50
2018-06-02T11:16:36.581Z,7.80
2018-06-02T11:17:36.542Z,7.90
2018-06-02T11:18:36.505Z,8.80
2018-06-02T11:19:36.554Z,8.40
2018-06-02T11:20:36.426Z,9.40
2018-06-02T11:21:36.391Z,11.10
2018-06-02T11:22:36.356Z,10.60
2018-06-02T11:23:36.315Z,11.20
2018-06-02T11:24:36.278Z,11.10
2018-06-02T11:25:36.239Z,11.30
2018-06-02T11:26:36.204Z,10.60
2018-06-02T11:27:36.160Z,10.00
2018-06-02T11:28:36.123Z,10.00
2018-06-02T11:29:36.087Z,9.70
2018-06-02T11:30:36.051Z,10.00
2018-06-02T11:31:36.008Z,9.30
2018-06-02T11:32:35.974Z,9.50
2018-06-02T11:33:35.931Z,9.60
2018-06-02T11:34:35.898Z,9.80
2018-06-02T11:35:35.858Z,9.10
2018-06-02T11:36:35.819Z,8.80
2018-06-02T11:37:35.779Z,8.60
2018-06-02T11:38:35.743Z,8.70
2018-06-02T11:39:35.702Z,8.90
2018-06-02T11:40:35.665Z,8.00
2018-06-02T11:41:35.625Z,7.90
2018-06-02T11:42:35.586Z,7.50
2018-06-02T11:43:35.550Z,8.10
2018-06-02T11:44:35.511Z,7.70
2018-06-02T11:45:35.481Z,7.60
2018-06-02T11:46:35.435Z,7.70
2018-06-02T11:47:35.397Z,7.70
2018-06-02T11:48:35.358Z,7.20
2018-06-02T11:49:35.325Z,7.10
2018-06-02T11:50:35.283Z,7.40
2018-06-02T11:51:35.247Z,7.40
2018-06-02T11:52:35.206Z,7.30
2018-06-02T11:53:35.168Z,7.90
2018-06-02T11:54:35.131Z,8.00
2018-06-02T11:55:35.092Z,8.30
2018-06-02T11:56:35.058Z,8.00
2018-06-02T11:57:35.020Z,8.60
2018-06-02T11:58:34.979Z,8.50
2018-06-02T11:59:34.943Z,9.10
2018-06-02T12:00:34.901Z,8.90
2018-06-02T12:01:34.871Z,9.50
2018-06-02T12:02:34.824Z,8.50
2018-06-02T12:03:34.785Z,9.40
2018-06-02T12:04:34.749Z,9.00
2018-06-02T12:05:34.713Z,9.20
2018-06-02T12:06:34.671Z,9.80
2018-06-02T12:07:34.636Z,9.90
2018-06-02T12:08:34.596Z,9.90
2018-06-02T12:09:34.557Z,10.20
2018-06-02T12:10:34.518Z,9.90
2018-06-02T12:11:34.478Z,10.00
2018-06-02T12:12:34.442Z,10.30
2018-06-02T12:13:34.405Z,9.30
2018-06-02T12:14:34.366Z,9.50
2018-06-02T12:15:34.324Z,9.40
2018-06-02T12:16:34.289Z,9.50
2018-06-02T12:17:34.249Z,10.00
2018-06-02T12:18:34.211Z,10.00
2018-06-02T12:19:34.174Z,9.30
2018-06-02T12:20:34.183Z,10.40
2018-06-02T12:21:34.098Z,9.50
2018-06-02T12:22:34.059Z,9.30
2018-06-02T12:23:34.024Z,9.20
2018-06-02T12:24:33.981Z,8.90
2018-06-02T12:25:33.946Z,9.60
2018-06-02T12:26:33.908Z,9.80
2018-06-02T12:27:33.867Z,9.10
2018-06-02T12:28:33.828Z,8.80
2018-06-02T12:29:33.792Z,8.70
2018-06-02T12:30:33.755Z,9.30
2018-06-02T12:31:33.718Z,9.10
2018-06-02T12:32:33.681Z,9.00
2018-06-02T12:33:33.640Z,9.30
2018-06-02T12:34:33.603Z,9.50
2018-06-02T12:35:33.563Z,9.80
2018-06-02T12:36:33.524Z,9.20
2018-06-02T12:37:33.489Z,9.40
2018-06-02T12:38:33.455Z,8.90
2018-06-02T12:39:33.415Z,9.50
2018-06-02T12:40:33.381Z,10.10
2018-06-02T12:41:33.335Z,9.60
2018-06-02T12:42:33.299Z,11.20
2018-06-02T12:43:33.264Z,10.20
2018-06-02T12:44:33.224Z,10.40
2018-06-02T12:45:33.184Z,10.00
2018-06-02T12:46:33.145Z,11.20
2018-06-02T12:47:33.110Z,11.20
2018-06-02T12:48:33.072Z,11.00
2018-06-02T12:49:33.035Z,11.20
2018-06-02T12:50:32.991Z,10.90
2018-06-02T12:51:32.954Z,11.40
2018-06-02T12:52:32.917Z,11.20
2018-06-02T12:53:32.884Z,11.00
2018-06-02T12:54:32.839Z,11.20